»·PEaware :: N744PW KUIL-KHQM

N744PW :: KUIL-KHQM

FLIGHT INFORMATION

Flight Status: Arrived
Operator: Privately registered:
United States
More flights under this callsign
Pilot: Anonymous 31222 (31222)
Aircraft: CESSNA 172 SKYHAWK
(C172)
More flights by this aircraft type
Origin: KUIL Quillayute
United States
Destination: KHQM Bowerman
United States
More flights between these airports :: More routes between these airports
Route: +
File this flight plan on PilotEdge
Remarks:
Altitude:
(Current/Filed)
0ft
Speed:
(Current/Filed)
0kts
Departed: 15-Oct-20 03:00 PM
Arrived: 15-Oct-20 03:44 PM
Distance/Time
Traveled:
63nm/0:44
Distance/Time
To Go:
Arrived

Flight Plot

Page will automatically refresh every two minutes.

Flight plan parsing failed; only flown route is shown


Map Options




Map Legend


Flown Route
Filed Route
Departure Airport
Arrival Airport
Navaid (VOR, NDB)
Fix

Horizontal Profiles

Position Reports

Time Latitude Longitude Heading Altitude Ground
Speed
15-Oct-20 14:58 47.855833 -124.505176 151 2851ft 90kts
15-Oct-20 14:59 47.833808 -124.490615 167 3356ft 86kts
15-Oct-20 15:00 47.809987 -124.477138 167 3728ft 90kts
15-Oct-20 15:01 47.787352 -124.463342 167 4230ft 86kts
15-Oct-20 15:02 47.765765 -124.449171 167 4733ft 82kts
15-Oct-20 15:03 47.745540 -124.434776 167 5235ft 79kts
15-Oct-20 15:04 47.724503 -124.419357 167 5498ft 95kts
15-Oct-20 15:05 47.699618 -124.402079 167 5493ft 100kts
15-Oct-20 15:06 47.674181 -124.384551 167 5493ft 101kts
15-Oct-20 15:07 47.648817 -124.367018 166 5493ft 101kts
15-Oct-20 15:08 47.623636 -124.349503 167 5528ft 99kts
15-Oct-20 15:09 47.598617 -124.332004 167 5526ft 99kts
15-Oct-20 15:10 47.573656 -124.314490 167 5526ft 99kts
15-Oct-20 15:11 47.548833 -124.296956 167 5526ft 98kts
15-Oct-20 15:12 47.524320 -124.279484 167 5526ft 97kts
15-Oct-20 15:13 47.500100 -124.263373 172 5526ft 93kts
15-Oct-20 15:14 47.476347 -124.250010 171 5526ft 90kts
15-Oct-20 15:15 47.452688 -124.237085 171 5333ft 98kts
15-Oct-20 15:16 47.426308 -124.230491 186 4726ft 93kts
15-Oct-20 15:17 47.400569 -124.232017 186 4119ft 93kts
15-Oct-20 15:18 47.374847 -124.235083 186 3514ft 93kts
15-Oct-20 15:19 47.349044 -124.239196 184 2909ft 94kts
15-Oct-20 15:20 47.322761 -124.242771 182 2305ft 96kts
15-Oct-20 15:21 47.296489 -124.243158 175 1881ft 82kts
15-Oct-20 15:23 47.274234 -124.242993 176 2222ft 83kts
15-Oct-20 15:24 47.247260 -124.240320 173 1745ft 102kts
15-Oct-20 15:25 47.225063 -124.218350 139 1505ft 90kts
15-Oct-20 15:26 47.206905 -124.194896 139 1507ft 85kts
15-Oct-20 15:27 47.188467 -124.171070 139 1509ft 91kts
15-Oct-20 15:28 47.169300 -124.146233 139 1508ft 92kts
15-Oct-20 15:29 47.150164 -124.121351 139 1508ft 92kts
15-Oct-20 15:30 47.131025 -124.096408 139 1508ft 92kts
15-Oct-20 15:31 47.111718 -124.071724 141 1507ft 91kts
15-Oct-20 15:32 47.092028 -124.047895 141 1507ft 91kts
15-Oct-20 15:33 47.072382 -124.024055 141 1507ft 91kts
15-Oct-20 15:34 47.052817 -124.000229 141 1507ft 91kts
15-Oct-20 15:35 47.032693 -123.977481 145 1506ft 91kts
15-Oct-20 15:36 47.011392 -123.957084 147 1507ft 91kts
15-Oct-20 15:37 46.987494 -123.942497 153 1508ft 95kts
15-Oct-20 15:38 46.962690 -123.928916 159 1498ft 92kts
15-Oct-20 15:39 46.941287 -123.938561 256 831ft 103kts
15-Oct-20 15:40 46.939578 -123.976094 262 623ft 86kts
15-Oct-20 15:41 46.957746 -123.992277 359 429ft 80kts
15-Oct-20 15:41 46.966189 -123.974846 82 367ft 59kts
15-Oct-20 15:43 46.970064 -123.946404 85 70ft 62kts
15-Oct-20 15:43 46.971562 -123.933966 79 23ft 11kts
15-Oct-20 15:45 46.973100 -123.930972 52 23ft 8kts
15-Oct-20 15:45 46.973409 -123.929379 54 24ft 4kts
15-Oct-20 15:47 46.973711 -123.928998 49 26ft 0kts
15-Oct-20 15:47 46.973711 -123.928998 49 26ft 0kts
15-Oct-20 15:48 46.973711 -123.928998 49 26ft 0kts
15-Oct-20 15:49 46.973711 -123.928998 49 26ft 0kts
15-Oct-20 15:50 46.973711 -123.928998 49 26ft 0kts
15-Oct-20 15:51 46.973644 -123.928867 200 26ft 2kts
15-Oct-20 15:52 46.972722 -123.932479 258 23ft 11kts
15-Oct-20 15:53 46.972197 -123.937034 270 26ft 11kts
15-Oct-20 15:54 46.971560 -123.941944 261 29ft 12kts
15-Oct-20 15:55 46.970941 -123.946071 216 32ft 0kts
15-Oct-20 15:56 46.970923 -123.946092 217 32ft 1kts
15-Oct-20 15:57 46.970149 -123.945190 80 32ft 29kts

Navigation Log

Ident Type
Flight plan parsing failed, navigation log unavailable